Trimble, Kentucky
Current Conditions -  °F | °C
As of 5:55 PM on Thursday 20 Nov 2014 (Local Time) from KSME Reporting Station
Clear Clear  
Wind Chill: 32°   Ceiling: Unl
Heat Index: 36°   Visibility: 10mi
Dew Point: 18°   Wind: 5mph
Humidity: 48%   Direction: 300°WNW
Pressure: 30.18"   Gusts: NA
Location:  37.0701°N, 84.793°W
Report Text: KSME 202255Z AUTO 30004KT 10SM CLR 02/M08 A3018 RMK AO2
Loading
Personal Weather Stations






























Interactive Weather Map New forecast layout! Learn more

10-Day Weather Forecast

Advertisements
Track Severe Weather on mobile